createdAt,value
2018-10-07T00:00:08.952Z,7.63
2018-10-07T00:02:37.823Z,7.87
2018-10-07T00:05:06.373Z,7.30
2018-10-07T00:07:34.866Z,10.30
2018-10-07T00:10:03.424Z,7.97
2018-10-07T00:12:32.130Z,9.07
2018-10-07T00:15:00.655Z,9.30
2018-10-07T00:17:29.735Z,7.67
2018-10-07T00:19:58.373Z,7.87
2018-10-07T00:22:26.896Z,10.20
2018-10-07T00:24:55.587Z,10.83
2018-10-07T00:27:24.935Z,7.97
2018-10-07T00:29:53.409Z,6.93
2018-10-07T00:32:22.021Z,7.60
2018-10-07T00:34:50.619Z,7.67
2018-10-07T00:37:19.758Z,8.80
2018-10-07T00:39:48.827Z,11.27
2018-10-07T00:42:17.319Z,13.13
2018-10-07T00:44:45.853Z,28.60
2018-10-07T00:47:14.454Z,27.93
2018-10-07T00:49:43.152Z,32.10
2018-10-07T00:52:11.710Z,35.70
2018-10-07T00:54:41.458Z,39.13
2018-10-07T00:57:09.992Z,39.87
2018-10-07T00:59:39.570Z,54.90
2018-10-07T01:02:08.286Z,61.57
2018-10-07T01:04:36.861Z,66.07
2018-10-07T01:07:05.443Z,72.33
2018-10-07T01:09:34.694Z,77.43
2018-10-07T01:12:03.820Z,72.53
2018-10-07T01:14:32.544Z,78.57
2018-10-07T01:17:01.045Z,82.07
2018-10-07T01:19:29.748Z,86.63
2018-10-07T01:21:58.279Z,83.83
2018-10-07T01:24:26.942Z,99.03
2018-10-07T01:26:55.501Z,78.33
2018-10-07T01:29:23.978Z,82.97
2018-10-07T01:31:52.654Z,83.43
2018-10-07T01:34:21.216Z,85.47
2018-10-07T01:36:49.990Z,81.03
2018-10-07T01:39:18.710Z,95.83
2018-10-07T01:41:47.581Z,92.47
2018-10-07T01:44:16.110Z,91.97
2018-10-07T01:46:44.682Z,92.07
2018-10-07T01:49:13.368Z,95.73
2018-10-07T01:51:42.624Z,93.07
2018-10-07T01:54:11.131Z,92.50
2018-10-07T01:56:40.332Z,98.50
2018-10-07T01:59:08.879Z,109.23
2018-10-07T02:01:37.483Z,103.10
2018-10-07T02:04:06.063Z,106.53
2018-10-07T02:06:34.618Z,106.43
2018-10-07T02:09:03.794Z,102.73
2018-10-07T02:11:32.466Z,112.00
2018-10-07T02:14:01.079Z,126.83
2018-10-07T02:16:30.271Z,106.90
2018-10-07T02:18:58.935Z,118.00
2018-10-07T02:21:27.453Z,103.33
2018-10-07T02:23:56.073Z,104.20
2018-10-07T02:26:24.606Z,100.90
2018-10-07T02:28:53.838Z,135.93
2018-10-07T02:31:22.542Z,189.23
2018-10-07T02:33:51.396Z,133.23
2018-10-07T02:36:19.887Z,128.37
2018-10-07T02:38:48.555Z,123.70
2018-10-07T02:41:17.060Z,130.67
2018-10-07T02:43:45.730Z,164.33
2018-10-07T02:46:14.347Z,203.23
2018-10-07T02:48:43.284Z,177.53
2018-10-07T02:51:12.408Z,250.60
2018-10-07T02:53:40.988Z,163.77
2018-10-07T02:56:09.583Z,247.20
2018-10-07T02:58:38.275Z,181.57
2018-10-07T03:01:07.111Z,300.83
2018-10-07T03:03:36.358Z,163.17
2018-10-07T03:06:05.021Z,144.90
2018-10-07T03:08:33.556Z,161.43
2018-10-07T03:11:02.843Z,158.57
2018-10-07T03:13:31.367Z,153.20
2018-10-07T03:15:59.890Z,164.67
2018-10-07T03:18:28.403Z,213.50
2018-10-07T03:20:57.211Z,193.53
2018-10-07T03:23:26.540Z,156.80
2018-10-07T03:25:55.135Z,136.97
2018-10-07T03:28:23.645Z,135.00
2018-10-07T03:30:52.295Z,129.30
2018-10-07T03:33:20.851Z,125.80
2018-10-07T03:35:49.411Z,125.13
2018-10-07T03:38:18.067Z,117.53
2018-10-07T03:40:46.583Z,125.67
2018-10-07T03:43:15.148Z,125.23
2018-10-07T03:45:43.775Z,118.90
2018-10-07T03:48:12.986Z,125.13
2018-10-07T03:50:41.636Z,137.83
2018-10-07T03:53:10.263Z,156.87
2018-10-07T03:55:39.140Z,146.33
2018-10-07T03:58:07.728Z,122.50
2018-10-07T04:00:36.304Z,126.10
2018-10-07T04:03:05.805Z,128.00
2018-10-07T04:05:35.081Z,119.33
2018-10-07T04:08:03.706Z,123.53
2018-10-07T04:10:32.189Z,118.83
2018-10-07T04:13:01.175Z,116.00
2018-10-07T04:15:29.748Z,116.37
2018-10-07T04:17:58.513Z,124.13
2018-10-07T04:20:27.320Z,116.80
2018-10-07T04:22:55.814Z,118.97
2018-10-07T04:25:24.423Z,114.23
2018-10-07T04:27:53.579Z,142.57
2018-10-07T04:30:22.186Z,132.00
2018-10-07T04:32:51.023Z,124.77
2018-10-07T04:35:19.529Z,140.53
2018-10-07T04:37:48.036Z,126.73
2018-10-07T04:40:16.593Z,130.03
2018-10-07T04:42:45.097Z,134.37
2018-10-07T04:45:13.813Z,131.93
2018-10-07T04:47:43.283Z,141.07
2018-10-07T04:50:11.831Z,138.10
2018-10-07T04:52:41.095Z,136.10
2018-10-07T04:55:09.905Z,132.00
2018-10-07T04:57:38.652Z,129.13
2018-10-07T05:00:07.239Z,138.00
2018-10-07T05:02:35.806Z,139.20
2018-10-07T05:05:04.641Z,135.27
2018-10-07T05:07:33.325Z,165.30
2018-10-07T05:10:12.958Z,143.87
2018-10-07T05:12:41.590Z,148.10
2018-10-07T05:15:10.063Z,141.67
2018-10-07T05:17:38.768Z,153.97
2018-10-07T05:20:07.631Z,178.43
2018-10-07T05:22:36.226Z,162.70
2018-10-07T05:25:05.185Z,150.23
2018-10-07T05:27:34.599Z,143.30
2018-10-07T05:30:04.477Z,140.23
2018-10-07T05:32:33.715Z,150.23
2018-10-07T05:35:02.238Z,146.43
2018-10-07T05:37:30.702Z,151.50
2018-10-07T05:39:59.203Z,138.50
2018-10-07T05:42:27.796Z,142.87
2018-10-07T05:44:56.319Z,145.70
2018-10-07T05:47:26.003Z,144.37
2018-10-07T05:49:55.792Z,142.37
2018-10-07T05:52:24.337Z,149.97
2018-10-07T05:54:52.890Z,148.23
2018-10-07T05:57:21.508Z,143.90
2018-10-07T05:59:50.110Z,190.23
2018-10-07T06:02:19.522Z,172.43
2018-10-07T06:04:50.972Z,165.17
2018-10-07T06:07:20.154Z,155.00
2018-10-07T06:09:48.710Z,156.37
2018-10-07T06:12:17.431Z,141.23
2018-10-07T06:14:57.207Z,135.27
2018-10-07T06:17:25.764Z,137.77
2018-10-07T06:19:54.473Z,143.23
2018-10-07T06:22:23.249Z,152.80
2018-10-07T06:24:52.028Z,152.50
2018-10-07T06:27:23.179Z,156.73
2018-10-07T06:30:05.428Z,142.77
2018-10-07T06:32:34.464Z,147.17
2018-10-07T06:35:03.227Z,139.80
2018-10-07T06:37:39.529Z,133.90
2018-10-07T06:40:08.621Z,145.47
2018-10-07T06:42:54.671Z,133.63
2018-10-07T06:45:23.314Z,132.27
2018-10-07T06:47:51.858Z,121.30
2018-10-07T06:50:20.532Z,113.53
2018-10-07T06:52:49.069Z,104.07
2018-10-07T06:55:18.268Z,95.30
2018-10-07T06:57:46.902Z,88.10
2018-10-07T07:03:27.580Z,61.30
2018-10-07T07:05:56.293Z,57.23
2018-10-07T07:08:24.912Z,47.43
2018-10-07T07:10:53.439Z,46.53
2018-10-07T07:13:22.793Z,38.60
2018-10-07T07:15:51.325Z,40.07
2018-10-07T07:18:19.887Z,40.97
2018-10-07T07:20:48.546Z,38.00
2018-10-07T07:23:17.840Z,39.63
2018-10-07T07:25:46.937Z,30.17
2018-10-07T07:28:15.622Z,29.67
2018-10-07T07:30:44.286Z,35.87
2018-10-07T07:33:12.943Z,33.30
2018-10-07T07:35:41.589Z,36.10
2018-10-07T07:38:10.102Z,31.97
2018-10-07T07:40:39.447Z,31.07
2018-10-07T07:43:07.995Z,32.83
2018-10-07T07:45:36.526Z,30.97
2018-10-07T07:48:05.199Z,25.70
2018-10-07T07:50:33.753Z,27.50
2018-10-07T07:53:03.099Z,27.13
2018-10-07T07:55:31.838Z,24.60
2018-10-07T07:58:00.414Z,28.33
2018-10-07T08:00:28.979Z,26.60
2018-10-07T08:02:58.056Z,25.43
2018-10-07T08:05:26.771Z,23.60
2018-10-07T08:07:55.304Z,24.93
2018-10-07T08:10:23.959Z,22.13
2018-10-07T08:12:52.537Z,20.70
2018-10-07T08:15:22.113Z,19.33
2018-10-07T08:17:58.762Z,20.37
2018-10-07T08:20:29.138Z,20.13
2018-10-07T08:22:57.693Z,16.33
2018-10-07T08:25:26.710Z,17.47
2018-10-07T08:28:07.273Z,15.87
2018-10-07T08:30:35.851Z,18.87
2018-10-07T08:33:11.949Z,14.83
2018-10-07T08:35:40.564Z,18.77
2018-10-07T08:38:09.060Z,21.40
2018-10-07T08:40:37.998Z,19.67
2018-10-07T08:43:06.623Z,20.93
2018-10-07T08:45:35.199Z,20.50
2018-10-07T08:48:03.723Z,17.10
2018-10-07T08:50:32.951Z,17.23
2018-10-07T08:53:02.361Z,19.83
2018-10-07T08:55:30.926Z,18.40
2018-10-07T08:57:59.538Z,18.80
2018-10-07T09:00:28.242Z,12.27
2018-10-07T09:02:56.915Z,8.60
2018-10-07T09:05:25.639Z,11.57
2018-10-07T09:07:55.104Z,9.53
2018-10-07T09:10:23.783Z,10.10
2018-10-07T09:12:52.877Z,11.67
2018-10-07T09:15:21.423Z,9.13
2018-10-07T09:17:50.013Z,11.30
2018-10-07T09:20:18.519Z,10.00
2018-10-07T09:22:47.037Z,10.20
2018-10-07T09:25:15.761Z,9.73
2018-10-07T09:27:44.345Z,9.60
2018-10-07T09:30:12.953Z,10.20
2018-10-07T09:32:41.538Z,8.97
2018-10-07T09:35:10.348Z,11.60
2018-10-07T09:37:39.004Z,8.87
2018-10-07T09:40:07.561Z,10.37
2018-10-07T09:42:37.529Z,9.83
2018-10-07T09:45:06.334Z,10.90
2018-10-07T09:47:35.098Z,9.27
2018-10-07T09:50:03.644Z,9.27
2018-10-07T09:52:32.350Z,9.80
2018-10-07T09:55:00.927Z,10.27
2018-10-07T09:57:29.908Z,10.67
2018-10-07T09:59:58.475Z,10.13
2018-10-07T10:02:27.095Z,9.57
2018-10-07T10:04:55.681Z,8.73
2018-10-07T10:07:24.184Z,13.57
2018-10-07T10:09:52.848Z,11.23
2018-10-07T10:12:21.367Z,10.13
2018-10-07T10:14:50.334Z,10.13
2018-10-07T10:17:21.472Z,9.27
2018-10-07T10:20:09.603Z,11.07
2018-10-07T10:23:12.654Z,10.90
2018-10-07T10:26:08.458Z,8.13
2018-10-07T10:28:47.116Z,8.77
2018-10-07T10:31:32.574Z,8.73
2018-10-07T10:36:13.189Z,9.07
2018-10-07T10:39:08.004Z,8.73
2018-10-07T10:41:39.071Z,8.53
2018-10-07T10:44:20.859Z,7.63
2018-10-07T10:46:57.880Z,8.03
2018-10-07T10:50:08.204Z,7.33
2018-10-07T10:52:49.005Z,7.37
2018-10-07T10:55:28.492Z,7.77
2018-10-07T10:58:00.994Z,9.00
2018-10-07T11:00:34.156Z,5.60
2018-10-07T11:03:32.116Z,8.10
2018-10-07T11:06:08.765Z,8.60
2018-10-07T11:08:44.820Z,7.60
2018-10-07T11:11:23.625Z,8.40
2018-10-07T11:13:58.745Z,7.27
2018-10-07T11:18:42.197Z,6.60
2018-10-07T11:21:20.771Z,6.73
2018-10-07T11:23:58.237Z,6.73
2018-10-07T11:26:38.174Z,6.37
2018-10-07T11:29:11.940Z,6.17
2018-10-07T11:32:18.757Z,6.23
2018-10-07T11:34:52.953Z,4.97
2018-10-07T11:38:04.664Z,6.73
2018-10-07T11:40:44.350Z,5.30
2018-10-07T11:43:35.068Z,5.27
2018-10-07T11:46:10.969Z,4.53
2018-10-07T11:48:50.550Z,5.23
2018-10-07T11:53:31.987Z,5.00
2018-10-07T11:56:00.539Z,5.23
2018-10-07T11:58:29.044Z,5.43
2018-10-07T12:00:58.620Z,4.60
2018-10-07T12:03:27.289Z,4.53
2018-10-07T12:05:56.483Z,4.57
2018-10-07T12:08:25.111Z,5.40
2018-10-07T12:10:54.254Z,4.70
2018-10-07T12:13:22.819Z,4.53
2018-10-07T12:15:51.735Z,7.60
2018-10-07T12:18:25.307Z,4.60
2018-10-07T12:20:53.856Z,4.87
2018-10-07T12:23:22.485Z,4.67
2018-10-07T12:25:51.014Z,5.17
2018-10-07T12:28:19.665Z,4.10
2018-10-07T12:30:48.176Z,4.57
2018-10-07T12:33:16.744Z,5.10
2018-10-07T12:35:45.530Z,3.20
2018-10-07T12:38:14.169Z,2.70
2018-10-07T12:40:44.090Z,5.13
2018-10-07T12:43:13.591Z,4.53
2018-10-07T12:45:42.848Z,4.10
2018-10-07T12:48:11.487Z,3.27
2018-10-07T12:50:42.406Z,2.53
2018-10-07T12:53:11.837Z,3.00
2018-10-07T12:55:40.444Z,2.87
2018-10-07T12:58:09.662Z,5.20
2018-10-07T13:00:38.540Z,2.73
2018-10-07T13:03:07.344Z,2.70
2018-10-07T13:05:36.084Z,1.97
2018-10-07T13:08:04.756Z,2.07
2018-10-07T13:10:34.030Z,3.03
2018-10-07T13:13:03.102Z,2.90
2018-10-07T13:15:32.176Z,2.17
2018-10-07T13:18:01.780Z,1.87
2018-10-07T13:20:34.315Z,2.47
2018-10-07T13:23:04.012Z,2.43
2018-10-07T13:25:43.030Z,1.67
2018-10-07T13:28:11.790Z,2.93
2018-10-07T13:30:40.568Z,1.90
2018-10-07T13:33:10.407Z,2.57
2018-10-07T13:35:40.055Z,2.67
2018-10-07T13:38:11.081Z,2.03
2018-10-07T13:40:39.680Z,2.37
2018-10-07T13:43:12.098Z,1.93
2018-10-07T13:45:41.817Z,3.63
2018-10-07T13:48:11.182Z,1.60
2018-10-07T13:50:39.999Z,2.27
2018-10-07T13:53:08.671Z,1.90
2018-10-07T13:55:37.263Z,2.90
2018-10-07T13:58:05.900Z,2.63
2018-10-07T14:00:34.408Z,1.70
2018-10-07T14:03:02.991Z,2.87
2018-10-07T14:05:31.515Z,1.57
2018-10-07T14:08:00.072Z,1.93
2018-10-07T14:10:28.601Z,1.87
2018-10-07T14:12:57.245Z,2.40
2018-10-07T14:15:25.808Z,2.37
2018-10-07T14:17:54.532Z,1.57
2018-10-07T14:20:24.690Z,2.07
2018-10-07T14:22:54.528Z,1.67
2018-10-07T14:25:23.396Z,2.20
2018-10-07T14:27:52.693Z,2.27
2018-10-07T14:30:21.251Z,2.90
2018-10-07T14:32:49.804Z,2.87
2018-10-07T14:35:18.331Z,2.50
2018-10-07T14:37:46.915Z,2.30
2018-10-07T14:40:15.463Z,2.20
2018-10-07T14:42:43.980Z,2.10
2018-10-07T14:45:12.530Z,2.37
2018-10-07T14:47:41.068Z,1.53
2018-10-07T14:50:09.628Z,3.07
2018-10-07T14:52:38.513Z,2.97
2018-10-07T14:55:07.067Z,2.20
2018-10-07T14:57:35.675Z,2.23
2018-10-07T15:00:04.311Z,1.87
2018-10-07T15:02:32.869Z,3.47
2018-10-07T15:05:01.424Z,2.73
2018-10-07T15:07:29.996Z,2.47
2018-10-07T15:09:59.458Z,1.27
2018-10-07T15:12:28.297Z,1.87
2018-10-07T15:14:57.555Z,1.90
2018-10-07T15:17:26.216Z,2.10
2018-10-07T15:19:54.867Z,1.57
2018-10-07T15:22:23.451Z,2.57
2018-10-07T15:24:51.966Z,2.30
2018-10-07T15:27:21.033Z,2.13
2018-10-07T15:29:49.746Z,1.33
2018-10-07T15:32:18.743Z,1.40
2018-10-07T15:34:47.363Z,1.60
2018-10-07T15:37:16.004Z,1.57
2018-10-07T15:39:44.595Z,2.93
2018-10-07T15:42:13.193Z,2.40
2018-10-07T15:44:41.966Z,1.30
2018-10-07T15:47:10.549Z,1.47
2018-10-07T15:49:39.957Z,2.57
2018-10-07T15:52:08.757Z,1.97
2018-10-07T15:54:37.644Z,1.50
2018-10-07T15:57:06.532Z,1.83
2018-10-07T15:59:35.074Z,7.13
2018-10-07T16:02:04.437Z,1.50
2018-10-07T16:04:33.166Z,1.50
2018-10-07T16:07:02.776Z,2.23
2018-10-07T16:09:31.415Z,2.83
2018-10-07T16:12:00.841Z,2.57
2018-10-07T16:14:30.471Z,2.73
2018-10-07T16:16:59.114Z,1.30
2018-10-07T16:19:27.739Z,1.50
2018-10-07T16:21:56.336Z,3.63
2018-10-07T16:24:24.986Z,1.87
2018-10-07T16:26:53.471Z,1.67
2018-10-07T16:29:22.082Z,1.87
2018-10-07T16:31:50.815Z,2.47
2018-10-07T16:34:20.339Z,1.50
2018-10-07T16:36:48.993Z,1.50
2018-10-07T16:39:18.800Z,2.23
2018-10-07T16:41:47.228Z,2.13
2018-10-07T16:44:15.819Z,2.30
2018-10-07T16:46:44.400Z,3.00
2018-10-07T16:49:13.003Z,4.20
2018-10-07T16:51:41.585Z,1.70
2018-10-07T16:54:10.304Z,3.20
2018-10-07T16:56:38.891Z,1.70
2018-10-07T16:59:07.886Z,2.03
2018-10-07T17:01:36.420Z,3.20
2018-10-07T17:04:05.517Z,2.23
2018-10-07T17:06:34.555Z,2.20
2018-10-07T17:09:03.200Z,1.97
2018-10-07T17:11:35.007Z,3.00
2018-10-07T17:14:03.678Z,2.10
2018-10-07T17:16:32.652Z,3.83
2018-10-07T17:19:01.217Z,3.27
2018-10-07T17:21:29.783Z,3.17
2018-10-07T17:23:58.963Z,2.00
2018-10-07T17:26:27.940Z,2.90
2018-10-07T17:28:56.707Z,2.47
2018-10-07T17:31:25.542Z,2.33
2018-10-07T17:33:54.059Z,4.77
2018-10-07T17:36:22.681Z,3.27
2018-10-07T17:38:51.269Z,4.47
2018-10-07T17:41:19.935Z,3.43
2018-10-07T17:43:48.656Z,5.97
2018-10-07T17:46:17.713Z,4.60
2018-10-07T17:48:46.678Z,4.20
2018-10-07T17:51:15.186Z,5.33
2018-10-07T17:53:43.851Z,3.90
2018-10-07T17:56:12.738Z,5.73
2018-10-07T17:58:41.390Z,4.43
2018-10-07T18:01:11.045Z,4.43
2018-10-07T18:03:40.164Z,4.97
2018-10-07T18:06:08.883Z,3.40
2018-10-07T18:08:38.161Z,5.03
2018-10-07T18:11:06.986Z,4.43
2018-10-07T18:13:35.708Z,4.50
2018-10-07T18:16:04.794Z,4.93
2018-10-07T18:18:34.935Z,5.00
2018-10-07T18:21:03.756Z,4.23
2018-10-07T18:23:32.723Z,6.37
2018-10-07T18:26:01.432Z,5.27
2018-10-07T18:28:30.194Z,5.67
2018-10-07T18:30:59.327Z,4.50
2018-10-07T18:33:28.282Z,4.37
2018-10-07T18:35:57.476Z,5.73
2018-10-07T18:38:26.373Z,5.40
2018-10-07T18:40:55.212Z,4.80
2018-10-07T18:43:24.161Z,6.30
2018-10-07T18:45:53.140Z,6.03
2018-10-07T18:48:22.200Z,6.03
2018-10-07T18:50:51.183Z,6.73
2018-10-07T18:53:20.060Z,7.63
2018-10-07T18:55:49.518Z,6.57
2018-10-07T18:58:18.399Z,6.63
2018-10-07T19:00:47.552Z,7.77
2018-10-07T19:03:16.760Z,6.13
2018-10-07T19:05:45.763Z,8.77
2018-10-07T19:08:14.362Z,9.40
2018-10-07T19:10:43.709Z,6.67
2018-10-07T19:13:12.471Z,9.83
2018-10-07T19:15:41.136Z,11.07
2018-10-07T19:18:09.681Z,9.20
2018-10-07T19:20:38.331Z,8.83
2018-10-07T19:23:07.828Z,9.13
2018-10-07T19:25:36.344Z,5.30
2018-10-07T19:28:04.908Z,6.40
2018-10-07T19:30:33.598Z,6.63
2018-10-07T19:33:02.092Z,6.07
2018-10-07T19:35:30.727Z,4.90
2018-10-07T19:37:59.299Z,3.90
2018-10-07T19:40:28.470Z,5.43
2018-10-07T19:42:57.300Z,4.47
2018-10-07T19:45:26.016Z,4.57
2018-10-07T19:47:54.731Z,4.30
2018-10-07T19:50:23.243Z,5.70
2018-10-07T19:52:51.847Z,6.30
2018-10-07T19:55:21.663Z,5.87
2018-10-07T19:57:50.475Z,8.57
2018-10-07T20:00:19.017Z,5.37
2018-10-07T20:02:48.235Z,5.10
2018-10-07T20:05:16.858Z,5.23
2018-10-07T20:07:45.605Z,4.53
2018-10-07T20:10:14.605Z,5.40
2018-10-07T20:12:43.246Z,6.27
2018-10-07T20:15:12.134Z,4.97
2018-10-07T20:17:40.836Z,4.17
2018-10-07T20:20:09.436Z,5.37
2018-10-07T20:22:38.090Z,6.20
2018-10-07T20:25:06.603Z,6.30
2018-10-07T20:27:35.216Z,5.37
2018-10-07T20:30:03.880Z,4.37
2018-10-07T20:32:32.767Z,5.50
2018-10-07T20:35:02.055Z,5.93
2018-10-07T20:37:31.907Z,4.37
2018-10-07T20:40:01.324Z,4.13
2018-10-07T20:42:30.168Z,5.33
2018-10-07T20:44:58.785Z,5.07
2018-10-07T20:47:29.176Z,6.27
2018-10-07T20:49:58.463Z,7.00
2018-10-07T20:52:27.506Z,5.43
2018-10-07T20:54:56.099Z,7.13
2018-10-07T20:57:25.127Z,5.77
2018-10-07T20:59:53.667Z,7.37
2018-10-07T21:02:22.259Z,7.33
2018-10-07T21:04:50.949Z,7.97
2018-10-07T21:07:19.719Z,5.13
2018-10-07T21:09:49.382Z,5.93
2018-10-07T21:12:18.006Z,6.77
2018-10-07T21:14:47.383Z,5.90
2018-10-07T21:17:15.954Z,5.47
2018-10-07T21:19:44.502Z,6.10
2018-10-07T21:22:13.928Z,5.93
2018-10-07T21:24:42.576Z,5.77
2018-10-07T21:27:11.130Z,7.77
2018-10-07T21:29:39.785Z,5.87
2018-10-07T21:32:08.307Z,5.10
2018-10-07T21:34:36.886Z,6.50
2018-10-07T21:37:05.455Z,5.53
2018-10-07T21:39:33.940Z,5.10
2018-10-07T21:42:03.397Z,5.47
2018-10-07T21:44:32.181Z,6.73
2018-10-07T21:47:00.880Z,5.10
2018-10-07T21:49:30.493Z,5.63
2018-10-07T21:51:59.034Z,6.40
2018-10-07T21:54:27.562Z,5.70
2018-10-07T21:56:56.192Z,6.77
2018-10-07T21:59:24.992Z,5.23
2018-10-07T22:01:53.489Z,6.27
2018-10-07T22:04:22.019Z,4.80
2018-10-07T22:06:50.607Z,5.47
2018-10-07T22:09:19.089Z,7.50
2018-10-07T22:11:48.867Z,6.57
2018-10-07T22:14:17.344Z,4.53
2018-10-07T22:16:45.952Z,6.27
2018-10-07T22:19:15.179Z,4.63
2018-10-07T22:21:43.785Z,6.27
2018-10-07T22:24:12.328Z,5.03
2018-10-07T22:26:40.850Z,6.00
2018-10-07T22:29:09.403Z,5.40
2018-10-07T22:31:38.602Z,4.73
2018-10-07T22:34:07.271Z,5.40
2018-10-07T22:36:36.172Z,5.93
2018-10-07T22:39:06.146Z,5.80
2018-10-07T22:41:34.691Z,4.30
2018-10-07T22:44:04.043Z,5.27
2018-10-07T22:46:32.569Z,5.50
2018-10-07T22:49:01.167Z,5.47
2018-10-07T22:51:29.756Z,5.07
2018-10-07T22:53:58.279Z,4.57
2018-10-07T22:56:26.806Z,6.97
2018-10-07T22:58:56.072Z,4.77
2018-10-07T23:01:24.703Z,4.57
2018-10-07T23:03:53.211Z,5.27
2018-10-07T23:06:21.816Z,5.70
2018-10-07T23:08:50.319Z,4.97
2018-10-07T23:11:19.528Z,5.33
2018-10-07T23:13:48.067Z,5.40
2018-10-07T23:16:17.383Z,8.17
2018-10-07T23:18:46.003Z,3.83
2018-10-07T23:21:14.566Z,5.40
2018-10-07T23:23:43.140Z,5.87
2018-10-07T23:26:12.328Z,4.50
2018-10-07T23:28:41.297Z,7.53
2018-10-07T23:31:09.856Z,7.03
2018-10-07T23:33:38.641Z,8.07
2018-10-07T23:36:07.247Z,5.43
2018-10-07T23:38:35.795Z,5.30
2018-10-07T23:41:04.453Z,6.53
2018-10-07T23:43:32.895Z,5.20
2018-10-07T23:46:02.120Z,7.13
2018-10-07T23:48:31.445Z,6.20
2018-10-07T23:50:59.974Z,5.77
2018-10-07T23:53:28.722Z,7.90
2018-10-07T23:55:57.392Z,5.70
2018-10-07T23:58:25.877Z,5.37
